Terminal Aerodrome Forecast
Issued by NWS Cleveland, OH

Home | Current Version | Previous Version | Text Only | Print | Product List | Glossary Off
Versions: 1 2 3 4 5 6 7 8 9 10 11 12 13 14 15 16 17 18 19 20 21

365
FTUS41 KCLE 252335
TAFERI
TAF
KERI 252335Z 2600/2624 04011KT P6SM VCSH BKN070 OVC100
     FM260300 06005KT P6SM BKN070 OVC100
     FM260700 16005KT 5SM -SHRA OVC050
     FM260900 01010KT 5SM BR OVC010
     FM261500 03015G22KT P6SM OVC010=

USA.gov is the U.S. government's official web portal to all federal, state and local government web resources and services.